Time;durP1;ratioP1;P1;durP2;ratioP2;P2;SDS_P1;SDS_P2;PMS_P1;PMS_P2;Temp;Humidity;BMP_temperature;BMP_pressure;BME280_temperature;BME280_humidity;BME280_pressure;Samples;Min_cycle;Max_cycle;Signal;HPM_P1;HPM_P2
2023/10/12 00:02:00;;;;;;;213.87;201.20;;;20.90;1.00;;;;;;5076546;28;20530;-80
2023/10/12 00:04:38;;;;;;;206.93;194.70;;;20.90;1.00;;;;;;5078234;28;20437;-79
2023/10/12 00:07:25;;;;;;;214.03;201.27;;;20.90;1.00;;;;;;5077439;28;20379;-79
2023/10/12 00:12:36;;;;;;;214.40;201.77;;;20.90;1.00;;;;;;5077428;28;20419;-79
2023/10/12 00:15:11;;;;;;;198.13;185.53;;;20.80;1.00;;;;;;5076367;28;20915;-79
2023/10/12 00:17:37;;;;;;;209.13;196.27;;;20.80;1.00;;;;;;5075125;28;20375;-79
2023/10/12 00:20:08;;;;;;;220.00;207.17;;;20.80;1.00;;;;;;5057212;28;20422;-79
2023/10/12 00:22:34;;;;;;;214.63;202.03;;;20.80;1.00;;;;;;5057171;28;20528;-79
2023/10/12 00:24:59;;;;;;;207.43;194.50;;;20.70;1.00;;;;;;5074612;28;20419;-79
2023/10/12 00:27:26;;;;;;;224.43;211.70;;;20.70;1.00;;;;;;5056296;28;20210;-79
2023/10/12 00:29:53;;;;;;;215.47;202.50;;;20.70;1.00;;;;;;5074773;28;20260;-78
2023/10/12 00:32:18;;;;;;;228.43;215.23;;;20.70;1.00;;;;;;5074698;28;20427;-79
2023/10/12 00:34:53;;;;;;;216.17;202.73;;;20.70;1.00;;;;;;5074972;28;20413;-79
2023/10/12 00:37:19;;;;;;;248.13;234.27;;;20.60;1.00;;;;;;5075515;28;20145;-79
2023/10/12 00:39:56;;;;;;;219.20;205.90;;;20.60;1.00;;;;;;5056515;28;20783;-79
2023/10/12 00:42:29;;;;;;;191.70;179.73;;;20.60;1.00;;;;;;5075480;28;20661;-79
2023/10/12 00:44:55;;;;;;;205.27;192.60;;;20.50;1.00;;;;;;5056780;28;20391;-79
2023/10/12 00:47:43;;;;;;;225.77;212.37;;;20.50;1.00;;;;;;5077197;28;20391;-79
2023/10/12 00:50:12;;;;;;;215.73;202.47;;;20.50;1.00;;;;;;5060241;28;20255;-79
2023/10/12 00:55:34;;;;;;;225.87;212.47;;;20.40;1.00;;;;;;5078579;28;20367;-79
2023/10/12 00:58:04;;;;;;;226.90;213.20;;;20.40;1.00;;;;;;5078394;28;20371;-79
2023/10/12 01:00:35;;;;;;;210.43;197.17;;;20.40;1.00;;;;;;5084206;28;20448;-79
2023/10/12 01:06:05;;;;;;;204.83;192.63;;;20.30;1.00;;;;;;5081007;28;20378;-79
2023/10/12 01:08:31;;;;;;;195.00;181.83;;;20.20;1.00;;;;;;5062476;28;20419;-79
2023/10/12 01:10:58;;;;;;;203.47;190.97;;;20.30;1.00;;;;;;5080309;28;20411;-79
2023/10/12 01:13:30;;;;;;;202.67;190.07;;;20.20;1.00;;;;;;5080602;28;20231;-79
2023/10/12 01:15:56;;;;;;;221.77;208.47;;;20.20;1.00;;;;;;5081070;28;20415;-79
2023/10/12 01:18:28;;;;;;;192.30;180.07;;;20.20;1.00;;;;;;5080499;28;20429;-79
2023/10/12 01:20:53;;;;;;;206.87;194.17;;;20.20;1.00;;;;;;5061345;28;20219;-79
2023/10/12 01:23:19;;;;;;;247.50;233.53;;;20.20;1.00;;;;;;5078291;28;20784;-79
2023/10/12 01:25:47;;;;;;;221.27;208.10;;;20.00;1.00;;;;;;5078291;28;20215;-79
2023/10/12 01:28:15;;;;;;;223.67;210.00;;;20.00;1.00;;;;;;5060366;28;20277;-79
2023/10/12 01:30:43;;;;;;;220.50;207.40;;;20.00;1.00;;;;;;5078915;28;20403;-79
2023/10/12 01:33:09;;;;;;;211.50;198.67;;;19.90;1.00;;;;;;5079163;28;20765;-79
2023/10/12 01:35:39;;;;;;;236.07;222.33;;;19.90;1.00;;;;;;5079173;28;20407;-79
2023/10/12 01:38:05;;;;;;;223.90;210.13;;;19.80;1.00;;;;;;5078590;28;20224;-79
2023/10/12 01:43:17;;;;;;;216.83;203.90;;;19.80;1.00;;;;;;5078859;28;20180;-79
2023/10/12 01:45:44;;;;;;;244.00;229.50;;;19.80;1.00;;;;;;5078425;28;20406;-79
2023/10/12 01:48:22;;;;;;;225.20;211.80;;;19.80;1.00;;;;;;5077349;28;20406;-79
2023/10/12 01:50:49;;;;;;;200.90;188.37;;;19.80;1.00;;;;;;5077742;28;20379;-79
2023/10/12 01:55:47;;;;;;;225.27;211.67;;;19.80;1.00;;;;;;5077280;28;20398;-79
2023/10/12 01:58:17;;;;;;;240.57;227.00;;;19.70;1.00;;;;;;5076386;28;20403;-79
2023/10/12 02:00:48;;;;;;;235.83;222.07;;;19.70;1.00;;;;;;5077627;28;20443;-79
2023/10/12 02:06:02;;;;;;;250.57;235.73;;;19.70;1.00;;;;;;5077271;28;20387;-79
2023/10/12 02:08:32;;;;;;;229.60;215.87;;;19.70;1.00;;;;;;5076647;28;20383;-79
2023/10/12 02:11:06;;;;;;;246.73;232.43;;;19.70;1.00;;;;;;5076932;28;20433;-79
2023/10/12 02:13:35;;;;;;;230.17;216.93;;;19.70;1.00;;;;;;5076708;28;20976;-78
2023/10/12 02:16:07;;;;;;;246.27;231.67;;;19.70;1.00;;;;;;5077125;28;20451;-79
2023/10/12 02:18:35;;;;;;;239.67;226.07;;;19.70;1.00;;;;;;5076617;28;20402;-79
2023/10/12 02:21:09;;;;;;;252.03;237.53;;;19.70;1.00;;;;;;5076332;28;20454;-79
2023/10/12 02:29:00;;;;;;;228.50;214.83;;;19.70;1.00;;;;;;5077202;28;20414;-81
2023/10/12 02:31:28;;;;;;;246.90;232.63;;;19.60;1.00;;;;;;5078622;28;20880;-78
2023/10/12 02:34:00;;;;;;;226.77;212.63;;;19.60;1.00;;;;;;5081492;28;20422;-79
2023/10/12 02:36:26;;;;;;;241.57;227.80;;;19.60;1.00;;;;;;5078538;28;20390;-79
2023/10/12 02:38:56;;;;;;;228.87;215.40;;;19.60;1.00;;;;;;5078523;28;20406;-80
2023/10/12 02:41:24;;;;;;;233.67;220.17;;;19.60;1.00;;;;;;5077156;28;20443;-79
2023/10/12 02:43:54;;;;;;;245.30;231.43;;;19.50;1.00;;;;;;5077435;28;20430;-79
2023/10/12 02:46:25;;;;;;;245.40;231.57;;;19.40;1.00;;;;;;5078249;28;20467;-80
2023/10/12 02:48:51;;;;;;;233.93;218.50;;;19.40;1.00;;;;;;5078099;28;20371;-79
2023/10/12 02:51:18;;;;;;;239.23;225.53;;;19.30;1.00;;;;;;5078366;28;20771;-79
2023/10/12 02:53:46;;;;;;;242.63;228.17;;;19.30;1.00;;;;;;5077810;28;20423;-80
2023/10/12 02:56:12;;;;;;;252.43;237.37;;;19.20;1.00;;;;;;5078134;28;20411;-80
2023/10/12 02:58:44;;;;;;;272.20;256.10;;;19.30;1.00;;;;;;5060298;28;20563;-80
2023/10/12 03:01:13;;;;;;;252.63;238.47;;;19.30;1.00;;;;;;5077901;28;20215;-80
2023/10/12 03:03:49;;;;;;;255.77;241.23;;;19.20;1.00;;;;;;5077508;28;20419;-80
2023/10/12 03:06:23;;;;;;;253.43;238.73;;;19.10;1.00;;;;;;5078397;28;20385;-79
2023/10/12 03:11:27;;;;;;;229.70;215.97;;;19.10;1.00;;;;;;5077813;28;20379;-80
2023/10/12 03:16:41;;;;;;;246.20;231.63;;;19.10;1.00;;;;;;5078351;28;20473;-80
2023/10/12 03:21:52;;;;;;;241.53;227.07;;;19.00;1.00;;;;;;5076650;28;20441;-79
2023/10/12 03:24:21;;;;;;;237.87;223.60;;;19.00;1.00;;;;;;5058444;28;20772;-79
2023/10/12 03:27:10;;;;;;;240.27;225.97;;;19.10;1.00;;;;;;5076363;28;20394;-79
2023/10/12 03:29:33;;;;;;;239.13;225.10;;;19.10;1.00;;;;;;5075907;28;20402;-79
2023/10/12 03:31:58;;;;;;;246.00;231.40;;;19.10;1.00;;;;;;5076289;28;20497;-79
2023/10/12 03:34:53;;;;;;;248.87;234.47;;;19.10;1.00;;;;;;5076169;28;20214;-79
2023/10/12 03:42:54;;;;;;;274.83;259.60;;;19.00;1.00;;;;;;5076324;28;20500;-79
2023/10/12 03:45:39;;;;;;;264.13;248.97;;;19.10;1.00;;;;;;5075741;28;20403;-79
2023/10/12 03:53:26;;;;;;;272.60;256.00;;;18.90;1.00;;;;;;5076622;28;20492;-79
2023/10/12 03:55:58;;;;;;;292.30;276.23;;;18.80;1.00;;;;;;5076659;28;20418;-79
2023/10/12 03:58:24;;;;;;;296.47;280.37;;;18.70;3.00;;;;;;5076667;28;20379;-79
2023/10/12 04:01:08;;;;;;;284.07;268.33;;;18.60;5.80;;;;;;5057813;28;20457;-79
2023/10/12 04:03:39;;;;;;;285.70;268.97;;;18.60;13.20;;;;;;5077743;28;20476;-79
2023/10/12 04:06:15;;;;;;;341.83;324.00;;;18.50;23.90;;;;;;5079229;28;20387;-80
2023/10/12 04:09:03;;;;;;;305.83;289.43;;;18.50;26.80;;;;;;5078352;28;20432;-79
2023/10/12 04:11:49;;;;;;;276.20;260.80;;;18.50;26.90;;;;;;5077879;28;20429;-80
2023/10/12 04:16:47;;;;;;;297.43;281.33;;;18.40;35.20;;;;;;5077859;28;20884;-79
2023/10/12 04:19:29;;;;;;;307.13;290.23;;;18.30;46.00;;;;;;5077911;28;20486;-79
2023/10/12 04:22:05;;;;;;;311.07;293.90;;;18.40;41.20;;;;;;5060760;28;21010;-79
2023/10/12 04:24:42;;;;;;;313.90;297.03;;;18.30;59.00;;;;;;5081150;28;20371;-80
2023/10/12 04:27:38;;;;;;;310.23;293.30;;;18.20;74.10;;;;;;5081292;28;20371;-79
2023/10/12 04:30:19;;;;;;;301.17;284.87;;;18.20;76.00;;;;;;5081116;28;20427;-80
2023/10/12 04:35:27;;;;;;;305.90;289.20;;;18.00;81.00;;;;;;5080960;28;20386;-80
2023/10/12 04:37:55;;;;;;;307.93;291.13;;;18.00;80.00;;;;;;5080471;28;20415;-79
2023/10/12 04:40:36;;;;;;;293.57;277.37;;;18.00;73.80;;;;;;5079596;28;20410;-80
2023/10/12 04:43:06;;;;;;;326.30;308.90;;;18.10;72.10;;;;;;5079636;28;20503;-79
2023/10/12 04:46:05;;;;;;;322.73;305.20;;;18.10;64.20;;;;;;5080273;28;20911;-79
2023/10/12 04:48:18;;;;;;;311.47;294.37;;;18.10;63.40;;;;;;5078498;28;20517;-79
2023/10/12 04:50:44;;;;;;;313.17;296.07;;;18.10;64.70;;;;;;5079708;28;20434;-79
2023/10/12 04:53:12;;;;;;;312.97;296.17;;;18.00;62.90;;;;;;5078704;28;20189;-79
2023/10/12 04:55:41;;;;;;;302.13;285.50;;;18.00;66.70;;;;;;5077965;28;20775;-79
2023/10/12 05:00:55;;;;;;;308.53;291.57;;;18.10;72.50;;;;;;5078202;28;20491;-78
2023/10/12 05:03:33;;;;;;;305.37;286.87;;;18.10;76.40;;;;;;5077071;28;20800;-78
2023/10/12 05:06:09;;;;;;;295.03;278.67;;;18.10;81.10;;;;;;5077033;28;20371;-78
2023/10/12 05:08:35;;;;;;;299.00;282.20;;;18.10;90.40;;;;;;5076789;28;20375;-78
2023/10/12 05:11:06;;;;;;;291.77;275.70;;;18.10;93.20;;;;;;5058730;28;20452;-78
2023/10/12 05:13:31;;;;;;;271.97;256.60;;;18.00;99.20;;;;;;5076372;28;20506;-78
2023/10/12 05:16:04;;;;;;;264.93;249.50;;;18.00;99.90;;;;;;5076648;28;20867;-78
2023/10/12 05:18:31;;;;;;;284.27;268.27;;;18.00;99.90;;;;;;5076769;28;20202;-78
2023/10/12 05:20:57;;;;;;;257.70;242.43;;;17.90;99.90;;;;;;5076274;28;20450;-78
2023/10/12 05:23:23;;;;;;;286.97;270.40;;;17.90;99.90;;;;;;5076314;28;20426;-78
2023/10/12 05:28:27;;;;;;;275.20;259.53;;;17.90;99.90;;;;;;5076620;28;20239;-78
2023/10/12 05:31:09;;;;;;;260.00;244.10;;;17.80;99.90;;;;;;5076627;28;20434;-78
2023/10/12 05:36:10;;;;;;;265.67;250.30;;;17.70;99.90;;;;;;5076387;28;20395;-78
2023/10/12 05:38:51;;;;;;;270.97;254.63;;;17.70;99.90;;;;;;5077814;28;20389;-78
2023/10/12 05:41:34;;;;;;;264.67;249.10;;;17.60;99.90;;;;;;5058000;28;20446;-79
2023/10/12 05:44:02;;;;;;;252.70;237.80;;;17.60;99.90;;;;;;5075886;28;20752;-78
2023/10/12 05:46:34;;;;;;;248.90;233.30;;;17.70;99.90;;;;;;5075155;28;20788;-77
2023/10/12 05:49:01;;;;;;;268.53;252.93;;;17.60;99.90;;;;;;5075064;28;20973;-77
2023/10/12 05:51:27;;;;;;;253.23;237.73;;;17.60;99.90;;;;;;5057242;28;20415;-78
2023/10/12 05:54:06;;;;;;;266.10;250.57;;;17.50;99.90;;;;;;5074867;28;20429;-78
2023/10/12 05:56:34;;;;;;;268.73;253.53;;;17.50;99.90;;;;;;5055635;28;20409;-78
2023/10/12 05:59:09;;;;;;;283.17;266.87;;;17.50;99.90;;;;;;5075139;28;20398;-78
2023/10/12 06:01:36;;;;;;;286.70;270.10;;;17.50;99.90;;;;;;5074786;28;20815;-78
2023/10/12 06:04:05;;;;;;;284.60;268.23;;;17.50;99.90;;;;;;5075116;28;20912;-78
2023/10/12 06:06:35;;;;;;;288.13;271.90;;;17.50;99.90;;;;;;5075109;28;20402;-78
2023/10/12 06:09:13;;;;;;;272.70;256.87;;;17.50;99.90;;;;;;5075062;28;20410;-78
2023/10/12 06:11:45;;;;;;;288.90;272.43;;;17.50;99.90;;;;;;5056682;28;20394;-78
2023/10/12 06:14:14;;;;;;;272.60;257.30;;;17.40;99.90;;;;;;5056436;28;20442;-78
2023/10/12 06:16:41;;;;;;;272.50;256.83;;;17.40;99.90;;;;;;5074379;28;20439;-78
2023/10/12 06:19:26;;;;;;;302.33;285.70;;;17.40;99.90;;;;;;5074248;28;20399;-78
2023/10/12 06:21:52;;;;;;;287.77;271.43;;;17.40;99.90;;;;;;5056207;28;20450;-78
2023/10/12 06:24:29;;;;;;;300.20;283.73;;;17.40;99.90;;;;;;5074747;28;20391;-77
2023/10/12 06:26:55;;;;;;;316.80;299.10;;;17.40;99.90;;;;;;5075026;28;20898;-78
2023/10/12 06:29:33;;;;;;;314.47;297.43;;;17.40;99.90;;;;;;5075765;28;20485;-78
2023/10/12 06:31:59;;;;;;;321.97;304.57;;;17.30;99.90;;;;;;5057928;28;20253;-77
2023/10/12 06:34:29;;;;;;;345.97;327.40;;;17.30;99.90;;;;;;5074782;28;20441;-78
2023/10/12 06:36:57;;;;;;;357.27;338.60;;;17.30;99.90;;;;;;5074475;28;21017;-78
2023/10/12 06:46:54;;;;;;;359.03;340.20;;;17.20;99.90;;;;;;5075286;28;20391;-78
2023/10/12 06:49:28;;;;;;;394.13;374.03;;;17.20;99.90;;;;;;5074516;28;20474;-78
2023/10/12 06:52:00;;;;;;;378.47;358.87;;;17.10;99.90;;;;;;5074706;28;20425;-78
2023/10/12 07:02:28;;;;;;;377.77;358.07;;;17.10;99.90;;;;;;5074138;28;20446;-78
2023/10/12 07:04:57;;;;;;;366.10;346.80;;;17.10;99.90;;;;;;5074330;28;20409;-78
2023/10/12 07:07:29;;;;;;;358.00;339.37;;;17.10;99.90;;;;;;5075171;28;20406;-78
2023/10/12 07:10:27;;;;;;;354.93;336.33;;;17.10;99.90;;;;;;5075423;28;20524;-78
2023/10/12 07:12:49;;;;;;;375.37;355.20;;;17.10;99.90;;;;;;5073309;28;20422;-79
2023/10/12 07:15:23;;;;;;;348.90;330.20;;;17.10;99.90;;;;;;5074341;28;20399;-78
2023/10/12 07:17:52;;;;;;;363.33;343.97;;;17.10;99.90;;;;;;5074760;28;20741;-78
2023/10/12 07:20:30;;;;;;;378.23;358.13;;;17.10;99.90;;;;;;5074350;28;20405;-78
2023/10/12 07:23:18;;;;;;;379.57;360.43;;;17.00;99.90;;;;;;5074596;28;20415;-79
2023/10/12 07:25:51;;;;;;;368.00;348.50;;;17.10;99.90;;;;;;5074268;28;20434;-79
2023/10/12 07:28:18;;;;;;;370.50;350.93;;;17.00;99.90;;;;;;5074368;28;20375;-78
2023/10/12 07:33:31;;;;;;;381.93;361.93;;;17.00;99.90;;;;;;5074336;28;20557;-78
2023/10/12 07:36:07;;;;;;;370.57;351.17;;;16.90;99.90;;;;;;5073793;28;20772;-78
2023/10/12 07:38:36;;;;;;;362.63;343.43;;;16.90;99.90;;;;;;5074086;28;20383;-78
2023/10/12 07:41:05;;;;;;;381.50;361.53;;;16.90;99.90;;;;;;5073830;28;20446;-78
2023/10/12 07:43:38;;;;;;;395.43;374.77;;;16.90;99.90;;;;;;5073588;28;20911;-78
2023/10/12 07:46:14;;;;;;;355.20;336.73;;;16.90;99.90;;;;;;5073831;28;20470;-78
2023/10/12 07:48:42;;;;;;;357.70;339.23;;;16.90;99.90;;;;;;5055787;28;20502;-79
2023/10/12 07:51:15;;;;;;;366.30;346.90;;;16.90;99.90;;;;;;5055610;28;20411;-78
2023/10/12 07:53:52;;;;;;;364.77;345.57;;;16.90;99.90;;;;;;5074040;28;20792;-78
2023/10/12 07:56:18;;;;;;;356.80;337.30;;;16.90;99.90;;;;;;5074025;28;20387;-78
2023/10/12 07:58:47;;;;;;;373.33;353.93;;;16.90;99.90;;;;;;5077462;28;20413;-78
2023/10/12 08:03:50;;;;;;;360.77;342.03;;;16.90;99.90;;;;;;5078118;28;20414;-78
2023/10/12 08:06:17;;;;;;;342.33;324.03;;;16.80;99.90;;;;;;5078520;28;20463;-78
2023/10/12 08:08:45;;;;;;;346.20;327.00;;;16.90;99.90;;;;;;5077873;28;20168;-78
2023/10/12 08:11:28;;;;;;;346.43;327.97;;;16.90;99.90;;;;;;5078149;28;20828;-78
2023/10/12 08:14:39;;;;;;;365.47;346.07;;;16.90;99.90;;;;;;5077634;28;20919;-78
2023/10/12 08:16:40;;;;;;;327.77;310.10;;;16.90;99.90;;;;;;5063303;28;20418;-78
2023/10/12 08:21:38;;;;;;;348.97;330.03;;;17.00;99.90;;;;;;5077856;28;20446;-78
2023/10/12 08:31:48;;;;;;;317.57;299.87;;;17.10;99.90;;;;;;5077864;28;20410;-78
2023/10/12 08:37:18;;;;;;;309.20;291.83;;;17.20;99.90;;;;;;5062012;28;20410;-78
2023/10/12 08:45:23;;;;;;;305.07;288.10;;;17.30;99.90;;;;;;5078660;28;20403;-79
2023/10/12 08:47:48;;;;;;;298.80;282.37;;;17.40;99.90;;;;;;5077936;28;20806;-79
2023/10/12 08:52:52;;;;;;;294.17;277.80;;;17.40;99.90;;;;;;5077883;28;20181;-79
2023/10/12 08:55:24;;;;;;;311.40;294.40;;;17.40;99.90;;;;;;5078004;28;20390;-79
2023/10/12 08:58:20;;;;;;;286.47;269.90;;;17.40;99.90;;;;;;5078069;28;20386;-78
2023/10/12 09:05:54;;;;;;;279.23;262.17;;;17.60;99.90;;;;;;5077618;28;20760;-78
2023/10/12 09:10:54;;;;;;;268.97;253.87;;;17.60;99.90;;;;;;5077477;28;20411;-78
2023/10/12 09:13:24;;;;;;;282.50;266.90;;;17.70;99.90;;;;;;5077695;28;20772;-78
2023/10/12 09:15:55;;;;;;;245.13;230.53;;;17.70;99.90;;;;;;5077778;28;20411;-78
2023/10/12 09:18:24;;;;;;;273.13;257.67;;;17.70;99.90;;;;;;5077285;28;20456;-79
2023/10/12 09:23:28;;;;;;;264.40;248.87;;;17.90;99.90;;;;;;5077035;28;20427;-79
2023/10/12 09:36:28;;;;;;;234.57;220.33;;;18.40;99.90;;;;;;5076712;28;20415;-79
2023/10/12 09:39:00;;;;;;;228.37;214.07;;;18.50;99.90;;;;;;5076129;28;20407;-78
2023/10/12 09:41:32;;;;;;;222.13;208.27;;;18.70;99.90;;;;;;5076415;28;20438;-78
2023/10/12 09:44:00;;;;;;;220.90;206.63;;;18.90;99.90;;;;;;5075763;28;20418;-78
2023/10/12 09:46:27;;;;;;;233.50;219.03;;;19.00;99.90;;;;;;5075971;28;20414;-78
2023/10/12 09:49:06;;;;;;;231.77;217.63;;;19.10;99.90;;;;;;5076153;28;20403;-78
2023/10/12 09:51:48;;;;;;;212.50;199.27;;;19.10;99.90;;;;;;5076289;28;20379;-78
2023/10/12 09:54:27;;;;;;;247.47;233.07;;;19.20;99.90;;;;;;5075784;28;20470;-79
2023/10/12 09:57:03;;;;;;;243.93;229.53;;;19.20;99.90;;;;;;5076034;28;20375;-78
2023/10/12 09:59:31;;;;;;;253.90;239.43;;;19.30;99.90;;;;;;5057430;28;20414;-79
2023/10/12 10:02:04;;;;;;;252.93;237.73;;;19.30;99.90;;;;;;5075775;28;20457;-78
2023/10/12 10:04:34;;;;;;;278.33;263.17;;;19.50;99.90;;;;;;5075594;28;20375;-78
2023/10/12 10:07:24;;;;;;;269.10;253.70;;;19.60;99.90;;;;;;5076104;28;20403;-78
2023/10/12 10:09:54;;;;;;;250.83;235.67;;;19.70;99.90;;;;;;5076920;28;20382;-78
2023/10/12 10:12:23;;;;;;;270.40;255.63;;;19.80;99.90;;;;;;5078585;28;20776;-79
2023/10/12 10:14:59;;;;;;;293.87;277.87;;;19.80;99.90;;;;;;5075873;28;20399;-78
2023/10/12 10:17:36;;;;;;;256.23;241.77;;;19.70;99.90;;;;;;5076273;28;20386;-78
2023/10/12 10:22:57;;;;;;;276.10;260.77;;;19.80;99.90;;;;;;5076201;28;20942;-79
2023/10/12 10:25:42;;;;;;;285.27;269.10;;;20.00;99.90;;;;;;5075275;28;20415;-79
2023/10/12 10:28:13;;;;;;;279.50;264.13;;;20.00;99.90;;;;;;5075762;28;20391;-79
2023/10/12 10:30:49;;;;;;;274.00;259.10;;;20.00;99.90;;;;;;5075265;28;20394;-79
2023/10/12 10:33:20;;;;;;;244.97;230.93;;;20.00;99.90;;;;;;5075633;28;20451;-79
2023/10/12 10:36:14;;;;;;;257.53;242.60;;;20.10;99.90;;;;;;5075589;28;20383;-79
2023/10/12 10:39:03;;;;;;;252.00;238.03;;;20.00;99.90;;;;;;5075498;28;20383;-79
2023/10/12 10:44:26;;;;;;;257.33;241.63;;;20.20;99.90;;;;;;5058162;28;20407;-78
2023/10/12 10:47:00;;;;;;;252.37;238.07;;;20.10;99.40;;;;;;5075247;28;20406;-78
2023/10/12 10:49:32;;;;;;;217.27;203.40;;;20.30;99.60;;;;;;5074831;28;20401;-79
2023/10/12 10:52:03;;;;;;;230.93;217.17;;;20.30;99.00;;;;;;5075411;28;20435;-79
2023/10/12 10:54:30;;;;;;;208.73;195.93;;;20.50;92.60;;;;;;5075246;28;20783;-78
2023/10/12 10:56:58;;;;;;;217.10;204.50;;;20.70;96.50;;;;;;5074724;28;20407;-79
2023/10/12 10:59:25;;;;;;;231.17;217.37;;;20.60;83.60;;;;;;5057575;28;20413;-78
2023/10/12 11:01:52;;;;;;;203.43;190.97;;;20.60;90.10;;;;;;5056369;28;20519;-78
2023/10/12 11:07:04;;;;;;;220.63;207.43;;;20.30;71.50;;;;;;5074524;28;20383;-78
2023/10/12 11:12:26;;;;;;;227.27;213.37;;;20.10;70.50;;;;;;5074290;28;20506;-79
2023/10/12 11:14:58;;;;;;;217.67;204.80;;;20.10;76.20;;;;;;5074723;28;20868;-78
2023/10/12 11:17:26;;;;;;;205.70;193.17;;;20.40;79.50;;;;;;5074208;28;20387;-78
2023/10/12 11:19:52;;;;;;;234.50;220.30;;;20.40;82.40;;;;;;5074323;28;20409;-78
2023/10/12 11:22:19;;;;;;;193.63;181.17;;;20.50;81.20;;;;;;5073917;28;20890;-79
2023/10/12 11:24:49;;;;;;;196.97;184.70;;;20.50;49.80;;;;;;5074255;28;20222;-79
2023/10/12 11:27:35;;;;;;;198.07;185.07;;;20.50;71.60;;;;;;5074673;28;20818;-79
2023/10/12 11:30:12;;;;;;;183.77;172.00;;;20.70;59.70;;;;;;5074090;28;20394;-79
2023/10/12 11:32:54;;;;;;;183.47;171.67;;;20.80;58.60;;;;;;5055530;28;20433;-79
2023/10/12 11:35:45;;;;;;;184.77;172.87;;;20.80;46.80;;;;;;5074323;28;20776;-79
2023/10/12 11:38:19;;;;;;;182.27;170.67;;;20.80;49.50;;;;;;5056255;28;20411;-78
2023/10/12 11:40:54;;;;;;;186.20;173.93;;;20.90;52.20;;;;;;5073644;28;20961;-79
2023/10/12 11:43:21;;;;;;;188.97;176.60;;;20.90;38.10;;;;;;5076238;28;20741;-79
2023/10/12 11:46:04;;;;;;;189.17;176.93;;;20.90;41.10;;;;;;5074501;28;20399;-79
2023/10/12 11:48:30;;;;;;;171.27;159.97;;;20.80;43.10;;;;;;5074387;28;20876;-78
2023/10/12 11:50:57;;;;;;;186.80;175.10;;;20.90;45.50;;;;;;5074483;28;20494;-79
2023/10/12 11:53:25;;;;;;;195.70;183.80;;;21.00;43.90;;;;;;5074342;28;20860;-79
2023/10/12 11:56:08;;;;;;;177.80;165.90;;;20.90;44.90;;;;;;5074084;28;20493;-79
2023/10/12 11:58:33;;;;;;;185.43;173.33;;;21.00;36.00;;;;;;5074255;28;20395;-79
2023/10/12 12:01:00;;;;;;;173.17;161.77;;;21.00;37.40;;;;;;5074089;28;20495;-79
2023/10/12 12:03:26;;;;;;;184.63;172.73;;;21.10;40.20;;;;;;5056363;28;20195;-79
2023/10/12 12:05:52;;;;;;;187.07;175.70;;;21.10;15.70;;;;;;5074418;28;20399;-79
2023/10/12 12:08:18;;;;;;;170.53;159.53;;;21.00;26.80;;;;;;5074142;28;20403;-79
2023/10/12 12:10:46;;;;;;;185.17;173.60;;;21.10;25.40;;;;;;5074087;28;20336;-79
2023/10/12 12:13:13;;;;;;;170.97;158.40;;;21.20;21.80;;;;;;5074651;28;20427;-79
2023/10/12 12:15:44;;;;;;;177.50;166.17;;;21.20;28.40;;;;;;5074284;28;20426;-79
2023/10/12 12:18:18;;;;;;;166.57;155.60;;;21.40;25.40;;;;;;5074108;28;20429;-79
2023/10/12 12:20:45;;;;;;;182.27;170.77;;;21.30;21.90;;;;;;5074321;28;20435;-78
2023/10/12 12:23:11;;;;;;;194.93;183.13;;;21.10;15.80;;;;;;5073664;28;20411;-78
2023/10/12 12:25:39;;;;;;;176.17;165.00;;;21.10;20.80;;;;;;5074011;28;20415;-79
2023/10/12 12:28:07;;;;;;;187.73;174.80;;;21.20;18.70;;;;;;5039304;28;20418;-79
2023/10/12 12:30:39;;;;;;;189.37;177.70;;;21.10;16.30;;;;;;5073809;28;20915;-78
2023/10/12 12:33:15;;;;;;;169.93;158.83;;;21.10;16.70;;;;;;5073605;28;20426;-79
2023/10/12 12:35:44;;;;;;;180.00;168.00;;;21.10;13.00;;;;;;5073336;28;20872;-78
2023/10/12 12:38:35;;;;;;;163.23;152.03;;;21.00;5.60;;;;;;5055907;28;20924;-78
2023/10/12 12:41:05;;;;;;;179.23;167.53;;;20.90;7.90;;;;;;5073767;28;20800;-78
2023/10/12 12:43:34;;;;;;;169.53;158.37;;;20.90;12.20;;;;;;5076111;28;20419;-79
2023/10/12 12:45:59;;;;;;;173.80;162.53;;;20.80;16.20;;;;;;5077515;28;20477;-78
2023/10/12 12:48:25;;;;;;;186.80;174.60;;;20.60;17.00;;;;;;5077725;28;20428;-79
2023/10/12 12:50:51;;;;;;;183.33;170.50;;;20.40;20.70;;;;;;5077240;28;20161;-79
2023/10/12 12:53:20;;;;;;;187.17;175.37;;;20.30;31.40;;;;;;5077288;28;20242;-78
2023/10/12 12:55:46;;;;;;;198.90;186.60;;;20.20;37.90;;;;;;5076937;28;20179;-78
2023/10/12 12:58:17;;;;;;;184.17;171.97;;;20.20;38.70;;;;;;5077132;28;20403;-79
2023/10/12 13:00:46;;;;;;;193.90;181.60;;;20.10;43.00;;;;;;5058812;28;20493;-78
2023/10/12 13:03:14;;;;;;;197.33;184.83;;;20.10;45.50;;;;;;5058831;28;20430;-78
2023/10/12 13:05:40;;;;;;;204.73;192.17;;;20.10;58.60;;;;;;5076654;28;20391;-78
2023/10/12 13:08:11;;;;;;;209.97;197.30;;;20.10;56.80;;;;;;5076122;28;20410;-77
2023/10/12 13:10:40;;;;;;;214.57;201.63;;;20.10;63.30;;;;;;5076138;28;20145;-77
2023/10/12 13:13:06;;;;;;;251.93;237.80;;;20.10;72.50;;;;;;5076317;28;20518;-78
2023/10/12 13:15:32;;;;;;;246.70;232.63;;;19.80;97.90;;;;;;5077314;28;20399;-77
2023/10/12 13:17:59;;;;;;;234.23;220.63;;;19.70;97.50;;;;;;5076202;28;20453;-77
2023/10/12 13:20:29;;;;;;;253.03;239.07;;;19.80;95.20;;;;;;5075453;28;20561;-77
2023/10/12 13:22:58;;;;;;;244.10;229.83;;;19.70;99.90;;;;;;5075529;28;20777;-78
2023/10/12 13:25:26;;;;;;;255.27;240.70;;;19.70;99.90;;;;;;5075688;28;20543;-78
2023/10/12 13:27:52;;;;;;;248.30;234.37;;;19.70;99.90;;;;;;5058460;28;20406;-78
2023/10/12 13:30:18;;;;;;;246.37;231.90;;;19.60;99.90;;;;;;5075708;28;20447;-78
2023/10/12 13:32:48;;;;;;;250.73;236.60;;;19.60;99.90;;;;;;5075569;28;20419;-78
2023/10/12 13:35:41;;;;;;;224.90;211.60;;;19.60;99.90;;;;;;5076127;28;20403;-78
2023/10/12 13:38:12;;;;;;;241.33;227.53;;;19.60;99.90;;;;;;5057969;28;20927;-78
2023/10/12 13:40:39;;;;;;;231.67;217.33;;;19.60;99.90;;;;;;5075874;28;20904;-79
2023/10/12 13:43:26;;;;;;;245.07;230.67;;;19.60;99.90;;;;;;5075716;28;20450;-79
2023/10/12 13:45:54;;;;;;;233.67;219.73;;;19.60;99.90;;;;;;5075803;28;20398;-78
2023/10/12 13:48:29;;;;;;;247.73;233.37;;;19.60;99.90;;;;;;5057791;28;20407;-79
2023/10/12 13:51:01;;;;;;;239.33;225.00;;;19.60;99.90;;;;;;5058011;28;20407;-79
2023/10/12 13:53:29;;;;;;;236.70;222.77;;;19.60;99.90;;;;;;5075744;28;20765;-79
2023/10/12 13:55:56;;;;;;;236.23;222.07;;;19.40;99.90;;;;;;5074936;28;20913;-78
2023/10/12 13:58:25;;;;;;;283.30;267.70;;;19.40;99.90;;;;;;5075957;28;20413;-79
2023/10/12 14:00:56;;;;;;;270.10;254.73;;;19.30;99.90;;;;;;5057256;28;20497;-78
2023/10/12 14:03:28;;;;;;;266.70;250.93;;;19.40;99.90;;;;;;5075299;28;20422;-78
2023/10/12 14:05:56;;;;;;;259.17;244.03;;;19.30;99.90;;;;;;5074980;28;20393;-78
2023/10/12 14:08:22;;;;;;;290.47;274.20;;;19.40;99.90;;;;;;5075330;28;20414;-79
2023/10/12 14:10:47;;;;;;;288.10;272.17;;;19.40;99.90;;;;;;5075026;28;20411;-79
2023/10/12 14:13:13;;;;;;;246.50;232.23;;;19.50;99.90;;;;;;5074800;28;20429;-79
2023/10/12 14:15:43;;;;;;;247.23;233.27;;;19.60;99.90;;;;;;5075177;28;20663;-79
2023/10/12 14:18:16;;;;;;;264.00;249.43;;;19.80;99.90;;;;;;5057119;28;20493;-79
2023/10/12 14:20:46;;;;;;;247.47;232.87;;;19.50;99.90;;;;;;5075247;28;20856;-79
2023/10/12 14:23:13;;;;;;;252.90;238.57;;;19.50;99.90;;;;;;5074859;28;20476;-78
2023/10/12 14:25:48;;;;;;;221.70;208.90;;;19.40;99.90;;;;;;5056981;28;20462;-79
2023/10/12 14:28:17;;;;;;;235.47;221.63;;;19.30;99.90;;;;;;5075334;28;20871;-79
2023/10/12 14:30:50;;;;;;;228.17;214.60;;;19.30;99.90;;;;;;5074983;28;20399;-79
2023/10/12 14:33:19;;;;;;;221.53;208.30;;;19.30;99.90;;;;;;5074646;28;20472;-79
2023/10/12 14:35:47;;;;;;;235.97;222.07;;;19.20;99.90;;;;;;5074972;28;20780;-79
2023/10/12 14:38:17;;;;;;;236.27;221.83;;;19.10;99.90;;;;;;5074895;28;20406;-79
2023/10/12 14:40:44;;;;;;;213.63;200.70;;;19.10;99.90;;;;;;5074895;28;20394;-79